Time;durP1;ratioP1;P1;durP2;ratioP2;P2;SDS_P1;SDS_P2;PMS_P1;PMS_P2;Temp;Humidity;BMP_temperature;BMP_pressure;BME280_temperature;BME280_humidity;BME280_pressure;Samples;Min_cycle;Max_cycle;Signal;HPM_P1;HPM_P2
2021/09/04 00:01:24;;;;;;;43.55;28.75;;;17.90;99.90;;;;;;5001720;28;20026;-79
2021/09/04 00:03:49;;;;;;;40.42;27.83;;;17.80;99.90;;;;;;5000465;28;20105;-79
2021/09/04 00:06:15;;;;;;;41.03;28.77;;;17.80;99.90;;;;;;4998015;28;20026;-78
2021/09/04 00:08:42;;;;;;;41.97;29.77;;;17.70;99.90;;;;;;5001353;28;20042;-79
2021/09/04 00:11:08;;;;;;;44.42;28.45;;;17.70;99.90;;;;;;5001862;28;20041;-79
2021/09/04 00:13:34;;;;;;;46.92;30.15;;;17.70;99.90;;;;;;5001833;28;20022;-79
2021/09/04 00:16:00;;;;;;;44.00;30.25;;;17.70;99.90;;;;;;5001364;28;20035;-79
2021/09/04 00:18:30;;;;;;;43.33;29.13;;;17.70;99.90;;;;;;5002127;28;20562;-78
2021/09/04 00:20:56;;;;;;;45.03;29.50;;;17.70;99.90;;;;;;5000532;28;20084;-79
2021/09/04 00:23:22;;;;;;;45.10;30.10;;;17.60;99.90;;;;;;5001281;28;20090;-79
2021/09/04 00:25:47;;;;;;;45.72;28.40;;;17.60;99.90;;;;;;5000993;28;20030;-79
2021/09/04 00:28:13;;;;;;;46.25;29.83;;;17.60;99.90;;;;;;5001167;28;20026;-78
2021/09/04 00:30:38;;;;;;;47.28;30.70;;;17.70;99.90;;;;;;4997712;28;20029;-78
2021/09/04 00:33:04;;;;;;;48.35;32.50;;;17.60;99.90;;;;;;4997566;28;20505;-78
2021/09/04 00:35:30;;;;;;;47.33;30.75;;;17.60;99.90;;;;;;4997386;28;20507;-78
2021/09/04 00:37:55;;;;;;;47.92;31.10;;;17.60;99.90;;;;;;4998553;28;20054;-78
2021/09/04 00:40:21;;;;;;;45.38;29.52;;;17.50;99.90;;;;;;4997161;28;20122;-79
2021/09/04 00:42:47;;;;;;;51.22;31.02;;;17.40;99.90;;;;;;4997203;28;20482;-79
2021/09/04 00:45:12;;;;;;;43.72;29.77;;;17.40;99.90;;;;;;4997442;28;20037;-78
2021/09/04 00:47:56;;;;;;;44.03;30.65;;;17.40;99.90;;;;;;4997336;28;20387;-78
2021/09/04 00:50:22;;;;;;;46.33;30.35;;;17.40;99.90;;;;;;4998514;28;20022;-78
2021/09/04 00:52:48;;;;;;;44.30;30.17;;;17.40;99.90;;;;;;4998048;28;20049;-79
2021/09/04 00:55:13;;;;;;;41.75;31.15;;;17.40;99.90;;;;;;4997374;28;20029;-79
2021/09/04 00:57:39;;;;;;;42.92;30.52;;;17.40;99.90;;;;;;4997765;28;20037;-80
2021/09/04 01:00:05;;;;;;;47.00;30.70;;;17.30;99.90;;;;;;4997369;28;20040;-79
2021/09/04 01:02:31;;;;;;;41.42;29.90;;;17.30;99.90;;;;;;4995504;28;20064;-78
2021/09/04 01:04:56;;;;;;;45.53;30.20;;;17.20;99.90;;;;;;4996339;28;20057;-78
2021/09/04 01:07:22;;;;;;;45.15;30.60;;;17.20;99.90;;;;;;4997910;28;20026;-79
2021/09/04 01:09:49;;;;;;;45.05;30.13;;;17.20;99.90;;;;;;4998314;28;20037;-80
2021/09/04 01:12:15;;;;;;;46.00;30.50;;;17.20;99.90;;;;;;4999715;28;20033;-80
2021/09/04 01:14:41;;;;;;;46.28;32.08;;;17.30;99.90;;;;;;4998124;28;20480;-79
2021/09/04 01:17:07;;;;;;;44.78;31.23;;;17.20;99.90;;;;;;4981496;28;20030;-79
2021/09/04 01:19:35;;;;;;;50.97;30.00;;;17.20;99.90;;;;;;4999857;28;20045;-79
2021/09/04 01:22:01;;;;;;;50.17;31.73;;;17.10;99.90;;;;;;4997271;28;20030;-79
2021/09/04 01:24:27;;;;;;;49.33;31.35;;;17.10;99.90;;;;;;4996881;28;20037;-79
2021/09/04 01:26:54;;;;;;;48.58;31.95;;;17.20;99.90;;;;;;4997666;28;20479;-79
2021/09/04 01:29:19;;;;;;;53.80;32.33;;;17.20;99.90;;;;;;4997565;28;20026;-78
2021/09/04 01:31:45;;;;;;;49.45;32.83;;;17.20;99.90;;;;;;4997999;28;20491;-79
2021/09/04 01:34:13;;;;;;;52.28;33.33;;;17.10;99.90;;;;;;4997634;28;20022;-79
2021/09/04 01:36:39;;;;;;;50.50;33.17;;;16.90;99.90;;;;;;4997295;28;20090;-78
2021/09/04 01:39:09;;;;;;;52.17;34.28;;;16.90;99.90;;;;;;4996456;28;20081;-79
2021/09/04 01:41:40;;;;;;;59.63;33.25;;;16.90;99.90;;;;;;4996695;28;20034;-79
2021/09/04 01:44:07;;;;;;;50.25;32.75;;;16.80;99.90;;;;;;4995977;28;20431;-79
2021/09/04 01:46:34;;;;;;;50.00;31.95;;;16.80;99.90;;;;;;4996812;28;20027;-79
2021/09/04 01:49:00;;;;;;;52.58;32.10;;;16.80;99.90;;;;;;4996024;28;20096;-78
2021/09/04 01:51:26;;;;;;;45.90;31.52;;;16.80;99.90;;;;;;4997072;28;20053;-79
2021/09/04 01:53:52;;;;;;;50.63;31.60;;;16.80;99.90;;;;;;4997830;28;20336;-79
2021/09/04 01:56:18;;;;;;;48.63;30.88;;;16.80;99.90;;;;;;4997558;28;20034;-79
2021/09/04 01:58:45;;;;;;;46.10;30.17;;;16.70;99.90;;;;;;4995860;28;20029;-79
2021/09/04 02:01:11;;;;;;;47.83;31.08;;;16.70;99.90;;;;;;4995527;28;20053;-80
2021/09/04 02:03:36;;;;;;;50.17;31.55;;;16.70;99.90;;;;;;4999416;28;20097;-79
2021/09/04 02:06:03;;;;;;;46.45;31.08;;;16.70;99.90;;;;;;4997891;28;20037;-79
2021/09/04 02:08:28;;;;;;;48.90;31.63;;;16.60;99.90;;;;;;4997259;28;20030;-80
2021/09/04 02:10:54;;;;;;;52.25;31.90;;;16.70;99.90;;;;;;4997030;28;20026;-79
2021/09/04 02:13:20;;;;;;;49.90;32.03;;;16.60;99.90;;;;;;4997342;28;20583;-78
2021/09/04 02:15:46;;;;;;;49.53;31.35;;;16.60;99.90;;;;;;4997356;28;20056;-78
2021/09/04 02:18:12;;;;;;;48.22;30.73;;;16.50;99.90;;;;;;4997828;28;20041;-78
2021/09/04 02:20:37;;;;;;;50.47;32.95;;;16.50;99.90;;;;;;4995379;28;20033;-78
2021/09/04 02:23:03;;;;;;;48.60;32.10;;;16.50;99.90;;;;;;4996211;28;20045;-78
2021/09/04 02:25:29;;;;;;;48.80;31.05;;;16.50;99.90;;;;;;4996855;28;20030;-79
2021/09/04 02:27:54;;;;;;;49.10;32.53;;;16.50;99.90;;;;;;4997793;28;20057;-79
2021/09/04 02:30:20;;;;;;;48.60;31.42;;;16.50;99.90;;;;;;4999212;28;20022;-79
2021/09/04 02:32:46;;;;;;;54.17;31.40;;;16.40;99.90;;;;;;4996504;28;20026;-79
2021/09/04 02:35:12;;;;;;;52.58;32.50;;;16.40;99.90;;;;;;4997675;28;20498;-79
2021/09/04 02:37:37;;;;;;;46.30;30.17;;;16.40;99.90;;;;;;4998806;28;20026;-79
2021/09/04 02:40:04;;;;;;;47.13;31.67;;;16.30;99.90;;;;;;4997140;28;20035;-79
2021/09/04 02:42:30;;;;;;;52.95;31.92;;;16.30;99.90;;;;;;4997409;28;20045;-79
2021/09/04 02:44:56;;;;;;;50.60;31.90;;;16.30;99.90;;;;;;4996848;28;20027;-78
2021/09/04 02:47:21;;;;;;;49.90;31.95;;;16.30;99.90;;;;;;4996231;28;20542;-79
2021/09/04 02:49:47;;;;;;;49.55;32.53;;;16.20;99.90;;;;;;4997137;28;20097;-79
2021/09/04 02:52:13;;;;;;;49.60;31.75;;;16.20;99.90;;;;;;4996308;28;20042;-79
2021/09/04 02:54:38;;;;;;;55.42;32.53;;;16.20;99.90;;;;;;4996724;28;20033;-78
2021/09/04 02:57:04;;;;;;;48.83;31.88;;;16.20;99.90;;;;;;4997294;28;20084;-79
2021/09/04 02:59:30;;;;;;;51.33;31.45;;;16.10;99.90;;;;;;4997879;28;20093;-79
2021/09/04 03:01:55;;;;;;;52.10;33.17;;;16.10;99.90;;;;;;4999387;28;20065;-78
2021/09/04 03:04:21;;;;;;;63.95;33.47;;;16.20;99.90;;;;;;4997413;28;20049;-79
2021/09/04 03:06:46;;;;;;;49.03;31.77;;;16.20;99.90;;;;;;4995928;28;20034;-79
2021/09/04 03:09:12;;;;;;;54.30;32.30;;;16.20;99.90;;;;;;4996308;28;20031;-80
2021/09/04 03:11:37;;;;;;;48.72;32.20;;;16.10;99.90;;;;;;4996550;28;20029;-79
2021/09/04 03:14:04;;;;;;;50.47;31.42;;;16.10;99.90;;;;;;4997635;28;20058;-79
2021/09/04 03:16:30;;;;;;;55.78;33.33;;;16.00;99.90;;;;;;4996129;28;20077;-79
2021/09/04 03:18:55;;;;;;;53.17;33.10;;;16.00;99.90;;;;;;4997911;28;20030;-79
2021/09/04 03:21:21;;;;;;;52.60;34.28;;;16.00;99.90;;;;;;4996665;28;20030;-78
2021/09/04 03:23:47;;;;;;;52.33;31.80;;;16.00;99.90;;;;;;4998276;28;20027;-80
2021/09/04 03:26:12;;;;;;;48.75;31.70;;;16.00;99.90;;;;;;4998142;28;20486;-79
2021/09/04 03:28:38;;;;;;;49.20;32.20;;;16.00;99.90;;;;;;4996227;28;20026;-79
2021/09/04 03:31:04;;;;;;;55.28;33.58;;;16.10;99.90;;;;;;4981891;28;20030;-80
2021/09/04 03:33:29;;;;;;;55.25;33.90;;;16.10;99.90;;;;;;4999411;28;20023;-80
2021/09/04 03:35:55;;;;;;;61.38;35.65;;;15.90;99.90;;;;;;4998788;28;20546;-79
2021/09/04 03:38:21;;;;;;;54.90;34.92;;;16.10;99.90;;;;;;4999261;28;20030;-80
2021/09/04 03:40:46;;;;;;;54.33;33.88;;;16.00;99.90;;;;;;4999690;28;20062;-80
2021/09/04 03:43:12;;;;;;;55.00;34.75;;;15.90;99.90;;;;;;4998344;28;20022;-80
2021/09/04 03:45:38;;;;;;;57.58;34.97;;;15.80;99.90;;;;;;4999817;28;20061;-79
2021/09/04 03:48:04;;;;;;;58.80;33.72;;;15.70;99.90;;;;;;5000225;28;20031;-79
2021/09/04 03:50:30;;;;;;;58.05;35.20;;;15.70;99.90;;;;;;4980519;28;20040;-79
2021/09/04 03:52:55;;;;;;;55.45;33.70;;;15.60;99.90;;;;;;4995540;28;20129;-79
2021/09/04 03:55:21;;;;;;;54.13;35.35;;;15.60;99.90;;;;;;4995985;28;20081;-79
2021/09/04 03:57:47;;;;;;;59.63;35.60;;;15.60;99.90;;;;;;4995809;28;20030;-79
2021/09/04 04:00:13;;;;;;;55.47;34.15;;;15.60;99.90;;;;;;4997048;28;20054;-79
2021/09/04 04:02:40;;;;;;;57.17;34.03;;;15.60;99.90;;;;;;4999033;28;20526;-79
2021/09/04 04:05:06;;;;;;;59.85;34.92;;;15.60;99.90;;;;;;4999467;28;20557;-80
2021/09/04 04:07:31;;;;;;;57.42;35.50;;;15.70;99.90;;;;;;4996141;28;20031;-79
2021/09/04 04:09:57;;;;;;;56.17;34.50;;;15.60;99.90;;;;;;4998761;28;20018;-80
2021/09/04 04:12:23;;;;;;;57.20;36.85;;;15.70;99.90;;;;;;4997978;28;20026;-79
2021/09/04 04:14:49;;;;;;;62.50;38.22;;;15.60;99.90;;;;;;4999461;28;20023;-79
2021/09/04 04:17:14;;;;;;;60.00;36.92;;;15.70;99.90;;;;;;5000476;28;20065;-80
2021/09/04 04:19:40;;;;;;;60.60;36.88;;;15.70;99.90;;;;;;4999370;28;20106;-80
2021/09/04 04:22:05;;;;;;;65.18;36.97;;;15.60;99.90;;;;;;5000167;28;20038;-80
2021/09/04 04:24:31;;;;;;;61.70;36.30;;;15.50;99.90;;;;;;4997231;28;20515;-80
2021/09/04 04:26:57;;;;;;;55.15;35.40;;;15.50;99.90;;;;;;4999291;28;20037;-80
2021/09/04 04:29:23;;;;;;;62.97;34.70;;;15.50;99.90;;;;;;4998711;28;20030;-80
2021/09/04 04:31:49;;;;;;;57.00;34.60;;;15.40;99.90;;;;;;4999144;28;20023;-78
2021/09/04 04:34:15;;;;;;;54.47;35.63;;;15.40;99.90;;;;;;4995911;28;20029;-80
2021/09/04 04:36:41;;;;;;;56.92;35.13;;;15.40;99.90;;;;;;4997526;28;20094;-79
2021/09/04 04:39:07;;;;;;;59.20;35.33;;;15.30;99.90;;;;;;4999367;28;20026;-79
2021/09/04 04:41:33;;;;;;;59.95;35.40;;;15.30;99.90;;;;;;4997968;28;20030;-79
2021/09/04 04:43:59;;;;;;;60.72;35.55;;;15.30;99.90;;;;;;4998085;28;20035;-79
2021/09/04 04:46:24;;;;;;;54.40;34.80;;;15.30;99.90;;;;;;4999110;28;20034;-79
2021/09/04 04:48:50;;;;;;;56.80;35.55;;;15.40;99.90;;;;;;4998866;28;20022;-79
2021/09/04 04:51:15;;;;;;;58.88;35.75;;;15.30;99.90;;;;;;4998812;28;20510;-79
2021/09/04 04:53:42;;;;;;;61.00;36.10;;;15.30;99.90;;;;;;4999298;28;20077;-79
2021/09/04 04:56:08;;;;;;;63.33;36.38;;;15.40;99.90;;;;;;4998937;28;20030;-79
2021/09/04 04:58:33;;;;;;;54.78;34.95;;;15.40;99.90;;;;;;5000395;28;20028;-79
2021/09/04 05:00:59;;;;;;;55.25;34.65;;;15.40;99.90;;;;;;4999444;28;20492;-78
2021/09/04 05:03:25;;;;;;;54.60;35.50;;;15.50;99.90;;;;;;5001395;28;20049;-79
2021/09/04 05:05:51;;;;;;;56.97;34.67;;;15.50;99.90;;;;;;4999571;28;20049;-80
2021/09/04 05:08:16;;;;;;;59.17;36.05;;;15.40;99.90;;;;;;4998768;28;20022;-80
2021/09/04 05:10:42;;;;;;;60.33;37.70;;;15.50;99.90;;;;;;4999730;28;20037;-79
2021/09/04 05:13:08;;;;;;;63.65;36.33;;;15.50;99.90;;;;;;4982080;28;20065;-79
2021/09/04 05:15:33;;;;;;;59.25;37.53;;;15.60;99.90;;;;;;5001427;28;20026;-79
2021/09/04 05:17:59;;;;;;;57.58;35.70;;;15.60;99.90;;;;;;5000135;28;20022;-80
2021/09/04 05:20:25;;;;;;;59.17;37.33;;;15.60;99.90;;;;;;4999263;28;20427;-80
2021/09/04 05:22:50;;;;;;;63.80;37.67;;;15.50;99.90;;;;;;5000619;28;20071;-80
2021/09/04 05:25:17;;;;;;;61.08;37.53;;;15.60;99.90;;;;;;4999917;28;20030;-79
2021/09/04 05:27:44;;;;;;;67.45;39.28;;;15.60;99.90;;;;;;4999018;28;20058;-79
2021/09/04 05:30:10;;;;;;;70.90;41.00;;;15.70;99.90;;;;;;5001788;28;20029;-80
2021/09/04 05:32:36;;;;;;;72.25;42.20;;;15.90;99.90;;;;;;5003120;28;20472;-80
2021/09/04 05:35:02;;;;;;;77.40;42.47;;;15.90;99.90;;;;;;5000378;28;20027;-80
2021/09/04 05:37:28;;;;;;;76.68;43.25;;;15.90;99.90;;;;;;4999662;28;20492;-79
2021/09/04 05:39:54;;;;;;;73.85;42.83;;;15.90;99.90;;;;;;4997418;28;20030;-80
2021/09/04 05:42:20;;;;;;;75.75;42.88;;;15.90;99.90;;;;;;5000858;28;20212;-80
2021/09/04 05:44:46;;;;;;;73.70;42.10;;;15.90;99.90;;;;;;5001812;28;20057;-80
2021/09/04 05:47:12;;;;;;;82.15;44.97;;;15.90;99.90;;;;;;5000853;28;20030;-80
2021/09/04 05:49:37;;;;;;;79.63;44.60;;;15.90;99.90;;;;;;5002991;28;20037;-82
2021/09/04 05:52:04;;;;;;;68.82;42.72;;;15.80;99.90;;;;;;4999072;28;20058;-79
2021/09/04 05:54:30;;;;;;;82.30;45.40;;;15.80;99.90;;;;;;5001428;28;20031;-80
2021/09/04 05:56:56;;;;;;;74.55;43.90;;;15.90;99.90;;;;;;5000689;28;20032;-80
2021/09/04 05:59:21;;;;;;;83.05;44.67;;;15.80;99.90;;;;;;5001456;28;20026;-80
2021/09/04 06:01:47;;;;;;;80.90;44.80;;;15.70;99.90;;;;;;5001462;28;20026;-79
2021/09/04 06:04:13;;;;;;;80.80;45.13;;;15.60;99.90;;;;;;4999265;28;20033;-80
2021/09/04 06:06:39;;;;;;;92.85;47.65;;;15.70;99.90;;;;;;5001446;28;20022;-80
2021/09/04 06:09:05;;;;;;;89.05;47.85;;;15.90;99.90;;;;;;5001745;28;20098;-81
2021/09/04 06:11:31;;;;;;;81.47;46.20;;;15.90;99.90;;;;;;5000973;28;20068;-80
2021/09/04 06:13:58;;;;;;;89.57;48.38;;;16.00;99.90;;;;;;5001057;28;20380;-80
2021/09/04 06:16:23;;;;;;;86.90;48.15;;;15.90;99.90;;;;;;5001024;28;20027;-80
2021/09/04 06:18:49;;;;;;;84.10;47.67;;;15.90;99.90;;;;;;5001702;28;20069;-81
2021/09/04 06:21:15;;;;;;;89.57;49.63;;;16.00;99.90;;;;;;5001184;28;20033;-81
2021/09/04 06:23:40;;;;;;;95.10;50.30;;;16.00;99.90;;;;;;5002392;28;20022;-80
2021/09/04 06:26:06;;;;;;;106.97;51.88;;;16.00;99.90;;;;;;5002433;28;20086;-81
2021/09/04 06:28:32;;;;;;;104.00;53.72;;;16.00;99.90;;;;;;5000781;28;20468;-81
2021/09/04 06:30:57;;;;;;;99.07;52.47;;;16.10;99.90;;;;;;4984677;28;20499;-80
2021/09/04 06:33:25;;;;;;;92.43;51.22;;;15.90;99.90;;;;;;5001452;28;20034;-80
2021/09/04 06:35:51;;;;;;;101.97;50.65;;;15.80;99.90;;;;;;4984214;28;20034;-81
2021/09/04 06:38:16;;;;;;;101.63;50.65;;;15.80;99.90;;;;;;5002556;28;20022;-81
2021/09/04 06:40:42;;;;;;;104.85;51.42;;;15.90;99.90;;;;;;5001994;28;20030;-80
2021/09/04 06:43:08;;;;;;;94.43;51.42;;;15.90;99.90;;;;;;5000564;28;20157;-80
2021/09/04 06:45:33;;;;;;;98.47;52.30;;;15.90;99.90;;;;;;5002042;28;20054;-81
2021/09/04 06:47:59;;;;;;;89.10;50.30;;;15.90;99.90;;;;;;4984279;28;20094;-81
2021/09/04 06:50:25;;;;;;;86.93;47.97;;;15.90;99.90;;;;;;4999664;28;20085;-80
2021/09/04 06:52:51;;;;;;;90.63;49.67;;;15.90;99.90;;;;;;4998119;28;20049;-79
2021/09/04 06:55:17;;;;;;;83.50;47.90;;;16.00;99.90;;;;;;4998486;28;20030;-79
2021/09/04 06:57:43;;;;;;;84.80;48.55;;;16.10;99.90;;;;;;4998851;28;20109;-79
2021/09/04 07:00:09;;;;;;;84.82;48.53;;;16.30;99.90;;;;;;4997350;28;20098;-79
2021/09/04 07:02:35;;;;;;;83.90;47.60;;;16.30;99.90;;;;;;4996613;28;20077;-79
2021/09/04 07:05:00;;;;;;;89.85;47.13;;;16.20;99.90;;;;;;4996005;28;20467;-79
2021/09/04 07:07:26;;;;;;;83.95;48.08;;;16.20;99.90;;;;;;4996105;28;20031;-79
2021/09/04 07:09:52;;;;;;;84.10;48.15;;;16.20;99.90;;;;;;4995285;28;20025;-79
2021/09/04 07:12:18;;;;;;;85.05;49.10;;;16.20;99.90;;;;;;4995721;28;20022;-79
2021/09/04 07:14:43;;;;;;;84.82;48.03;;;16.20;99.90;;;;;;4996326;28;20035;-79
2021/09/04 07:17:09;;;;;;;88.15;48.88;;;16.30;99.90;;;;;;4996968;28;20057;-80
2021/09/04 07:19:35;;;;;;;82.38;48.45;;;16.30;99.90;;;;;;4995567;28;20033;-80
2021/09/04 07:22:00;;;;;;;77.90;46.13;;;16.30;99.90;;;;;;4999252;28;20053;-80
2021/09/04 07:24:26;;;;;;;87.65;48.85;;;16.40;99.90;;;;;;4998696;28;20030;-80
2021/09/04 07:26:51;;;;;;;93.75;51.90;;;16.40;99.90;;;;;;4998078;28;20073;-80
2021/09/04 07:29:17;;;;;;;89.07;51.75;;;16.40;99.90;;;;;;4998642;28;20492;-80
2021/09/04 07:31:43;;;;;;;94.13;51.97;;;16.50;99.90;;;;;;4997010;28;20026;-80
2021/09/04 07:34:08;;;;;;;87.65;49.22;;;16.50;99.90;;;;;;4997475;28;20327;-80
2021/09/04 07:36:34;;;;;;;89.47;51.40;;;16.50;99.90;;;;;;4999692;28;20030;-80
2021/09/04 07:39:00;;;;;;;93.85;51.42;;;16.50;99.90;;;;;;4997656;28;20032;-80
2021/09/04 07:41:25;;;;;;;87.63;50.05;;;16.50;99.90;;;;;;4997841;28;20026;-80
2021/09/04 07:43:51;;;;;;;83.00;49.50;;;16.50;99.90;;;;;;4997922;28;20026;-80
2021/09/04 07:46:17;;;;;;;85.85;49.50;;;16.60;99.90;;;;;;4997741;28;20045;-79
2021/09/04 07:48:42;;;;;;;88.88;51.42;;;16.60;99.90;;;;;;4997958;28;20026;-79
2021/09/04 07:51:08;;;;;;;90.88;51.97;;;16.70;99.90;;;;;;4996976;28;20052;-79
2021/09/04 07:53:33;;;;;;;98.88;53.95;;;16.80;99.90;;;;;;4998360;28;20038;-81
2021/09/04 07:55:59;;;;;;;96.28;54.10;;;16.70;99.90;;;;;;4994681;28;20022;-79
2021/09/04 07:58:25;;;;;;;86.63;50.67;;;16.60;99.90;;;;;;4995351;28;20062;-79
2021/09/04 08:00:50;;;;;;;81.32;49.10;;;16.40;99.90;;;;;;4994388;28;20026;-79
2021/09/04 08:03:16;;;;;;;80.47;49.13;;;16.60;99.90;;;;;;4994125;28;20113;-79
2021/09/04 08:05:42;;;;;;;77.68;47.97;;;16.50;99.90;;;;;;4994822;28;20479;-79
2021/09/04 08:08:07;;;;;;;78.40;47.45;;;16.70;99.90;;;;;;4994778;28;20052;-78
2021/09/04 08:10:33;;;;;;;76.68;47.15;;;16.70;99.90;;;;;;4997290;28;20029;-79
2021/09/04 08:12:59;;;;;;;74.63;45.03;;;16.60;99.90;;;;;;4997991;28;20026;-79
2021/09/04 08:15:25;;;;;;;78.47;47.75;;;16.60;99.90;;;;;;4996149;28;20426;-79
2021/09/04 08:17:50;;;;;;;70.57;45.47;;;16.70;99.90;;;;;;4995413;28;20403;-79
2021/09/04 08:20:16;;;;;;;72.03;44.28;;;16.70;99.90;;;;;;4994143;28;20088;-78
2021/09/04 08:22:42;;;;;;;77.65;47.60;;;16.80;99.90;;;;;;4998841;28;20089;-79
2021/09/04 08:25:08;;;;;;;78.28;47.35;;;16.80;99.90;;;;;;4999507;28;20137;-79
2021/09/04 08:27:34;;;;;;;79.47;46.42;;;16.70;99.90;;;;;;4999545;28;20058;-79
2021/09/04 08:29:59;;;;;;;82.30;47.08;;;16.70;99.90;;;;;;4999517;28;20061;-79
2021/09/04 08:32:25;;;;;;;78.38;47.40;;;16.70;99.90;;;;;;4998854;28;20027;-79
2021/09/04 08:34:51;;;;;;;77.70;46.90;;;16.70;99.90;;;;;;4998641;28;20085;-79
2021/09/04 08:37:16;;;;;;;79.10;45.83;;;16.70;99.90;;;;;;4998052;28;20433;-79
2021/09/04 08:39:42;;;;;;;72.30;43.50;;;16.70;99.90;;;;;;4999239;28;20387;-79
2021/09/04 08:42:09;;;;;;;77.28;45.60;;;16.70;99.90;;;;;;4999239;28;20376;-79
2021/09/04 08:44:35;;;;;;;75.63;45.20;;;16.70;99.90;;;;;;4998946;28;20039;-78
2021/09/04 08:47:01;;;;;;;71.63;44.88;;;16.90;99.90;;;;;;4996631;28;20113;-78
2021/09/04 08:49:28;;;;;;;73.57;44.30;;;16.90;99.90;;;;;;4996753;28;20105;-79
2021/09/04 08:51:54;;;;;;;75.20;44.65;;;16.90;99.90;;;;;;5003246;28;20494;-78
2021/09/04 08:54:20;;;;;;;71.43;42.70;;;16.90;99.90;;;;;;5017531;28;20092;-79
2021/09/04 08:56:46;;;;;;;69.80;43.28;;;16.90;99.90;;;;;;5014644;28;20034;-78
2021/09/04 08:59:11;;;;;;;68.38;43.75;;;17.10;99.90;;;;;;5016340;28;20036;-78
2021/09/04 09:01:44;;;;;;;68.95;43.85;;;17.10;99.90;;;;;;5016563;28;20131;-79
2021/09/04 09:04:14;;;;;;;67.38;42.30;;;17.20;99.90;;;;;;5015955;28;20072;-79
2021/09/04 09:06:40;;;;;;;70.72;44.35;;;17.20;99.90;;;;;;5016006;28;20454;-79
2021/09/04 09:09:21;;;;;;;66.38;42.22;;;17.30;99.90;;;;;;5015829;28;20026;-78
2021/09/04 09:11:48;;;;;;;71.00;44.70;;;17.30;99.90;;;;;;5015442;28;20056;-78
2021/09/04 09:14:14;;;;;;;72.50;44.08;;;17.40;99.90;;;;;;5015993;28;20026;-79
2021/09/04 09:16:52;;;;;;;67.43;42.40;;;17.10;99.90;;;;;;5016260;28;20080;-78
2021/09/04 09:19:20;;;;;;;68.03;42.60;;;17.10;99.90;;;;;;5016747;28;20041;-79
2021/09/04 09:21:46;;;;;;;73.65;44.15;;;17.30;99.90;;;;;;5019518;28;20026;-79
2021/09/04 09:24:21;;;;;;;71.15;43.40;;;17.30;99.90;;;;;;5018122;28;20052;-79
2021/09/04 09:26:57;;;;;;;66.55;41.40;;;17.30;99.90;;;;;;5017393;28;20078;-79
2021/09/04 09:29:34;;;;;;;69.20;41.92;;;17.40;99.90;;;;;;5016873;28;20483;-79
2021/09/04 09:32:05;;;;;;;77.00;45.38;;;17.60;99.90;;;;;;5016773;28;20058;-79
2021/09/04 09:34:45;;;;;;;79.80;46.35;;;17.80;99.90;;;;;;5018283;28;20022;-79
2021/09/04 09:37:13;;;;;;;79.53;46.65;;;17.60;99.90;;;;;;5016248;28;20026;-78
2021/09/04 09:39:43;;;;;;;71.60;43.97;;;17.60;99.90;;;;;;5016285;28;20022;-78
2021/09/04 09:42:11;;;;;;;71.63;42.13;;;17.60;99.90;;;;;;5017327;28;20029;-79
2021/09/04 09:44:38;;;;;;;75.95;44.45;;;17.80;99.90;;;;;;5015071;28;20034;-79
2021/09/04 09:47:12;;;;;;;84.53;45.40;;;17.70;99.90;;;;;;5016003;28;20034;-80
2021/09/04 09:49:40;;;;;;;79.30;45.35;;;17.70;99.90;;;;;;5015035;28;20087;-79
2021/09/04 09:52:12;;;;;;;82.35;46.90;;;17.50;99.90;;;;;;5013576;28;20161;-79
2021/09/04 09:54:38;;;;;;;75.63;46.17;;;17.40;99.90;;;;;;5013532;28;20025;-79
2021/09/04 09:57:05;;;;;;;81.47;46.38;;;17.50;99.90;;;;;;5014548;28;20029;-79
2021/09/04 09:59:31;;;;;;;78.93;45.92;;;17.60;99.90;;;;;;5015818;28;20026;-79
2021/09/04 10:02:07;;;;;;;77.88;46.08;;;17.40;99.90;;;;;;5017816;28;20125;-79
2021/09/04 10:04:38;;;;;;;82.93;46.80;;;17.60;99.90;;;;;;5017645;28;20503;-79
2021/09/04 10:07:05;;;;;;;76.03;45.92;;;17.60;99.90;;;;;;5017893;28;20080;-79
2021/09/04 10:09:31;;;;;;;75.72;45.03;;;17.70;99.90;;;;;;5016976;28;20022;-78
2021/09/04 10:11:58;;;;;;;79.35;47.47;;;17.70;99.90;;;;;;5014966;28;20089;-78
2021/09/04 10:14:25;;;;;;;82.25;48.10;;;17.90;99.90;;;;;;5015250;28;20026;-79
2021/09/04 10:16:55;;;;;;;83.72;47.17;;;17.90;99.90;;;;;;5017292;28;20030;-79
2021/09/04 10:19:24;;;;;;;83.93;46.63;;;18.00;99.90;;;;;;5015602;28;20026;-78
2021/09/04 10:21:58;;;;;;;78.95;44.67;;;18.20;99.90;;;;;;5014396;28;20529;-79
2021/09/04 10:24:43;;;;;;;74.75;44.90;;;18.40;99.90;;;;;;5015786;28;20022;-79
2021/09/04 10:27:31;;;;;;;76.72;44.85;;;18.70;99.90;;;;;;5015181;28;20491;-79
2021/09/04 10:29:57;;;;;;;70.72;42.75;;;18.80;99.90;;;;;;5014248;28;20120;-78
2021/09/04 10:32:23;;;;;;;69.43;41.50;;;19.00;99.90;;;;;;5013025;28;20018;-78
2021/09/04 10:35:04;;;;;;;71.00;43.22;;;19.20;99.90;;;;;;5013883;28;20029;-78
2021/09/04 10:37:29;;;;;;;73.57;43.58;;;19.50;99.90;;;;;;5012492;28;20033;-78
2021/09/04 10:40:10;;;;;;;70.82;43.42;;;19.60;99.90;;;;;;5013751;28;20123;-79
2021/09/04 10:42:41;;;;;;;78.25;44.60;;;20.00;99.90;;;;;;5013180;28;20034;-79
2021/09/04 10:45:12;;;;;;;75.28;44.58;;;20.30;99.90;;;;;;5012885;28;20033;-79
2021/09/04 10:47:52;;;;;;;75.20;44.92;;;20.10;99.90;;;;;;5015451;28;20418;-79
2021/09/04 10:50:22;;;;;;;71.82;44.28;;;19.90;99.90;;;;;;5016371;28;20030;-80
2021/09/04 10:52:54;;;;;;;78.18;46.55;;;19.90;99.90;;;;;;5016794;28;20143;-79
2021/09/04 10:55:23;;;;;;;77.47;45.55;;;19.80;99.90;;;;;;5017887;28;20014;-79
2021/09/04 10:57:50;;;;;;;77.93;46.33;;;19.90;99.90;;;;;;5015111;28;20037;-79
2021/09/04 11:00:25;;;;;;;75.22;45.65;;;19.50;99.90;;;;;;5016533;28;20025;-79
2021/09/04 11:02:58;;;;;;;77.60;45.33;;;19.40;99.90;;;;;;5014186;28;20113;-79
2021/09/04 11:05:24;;;;;;;73.72;43.70;;;19.80;99.90;;;;;;5016829;28;20029;-78
2021/09/04 11:08:06;;;;;;;76.35;45.08;;;19.80;99.90;;;;;;5016921;28;20395;-79
2021/09/04 11:10:34;;;;;;;78.20;44.38;;;20.10;99.90;;;;;;5017943;28;20106;-79
2021/09/04 11:13:12;;;;;;;76.28;44.70;;;20.30;99.90;;;;;;5016300;28;20044;-79
2021/09/04 11:15:42;;;;;;;70.90;45.05;;;20.60;99.90;;;;;;5014734;28;20054;-78
2021/09/04 11:18:08;;;;;;;70.30;44.35;;;20.80;99.90;;;;;;5013620;28;20025;-79
2021/09/04 11:20:42;;;;;;;69.15;42.50;;;20.90;99.90;;;;;;5015963;28;20102;-80
2021/09/04 11:23:08;;;;;;;72.38;45.03;;;21.20;99.90;;;;;;5017282;28;20033;-79
2021/09/04 11:25:34;;;;;;;79.55;45.47;;;21.30;99.90;;;;;;5014027;28;20041;-79
2021/09/04 11:28:00;;;;;;;79.88;47.45;;;21.30;99.90;;;;;;5013271;28;20029;-78
2021/09/04 11:30:25;;;;;;;81.68;48.15;;;21.40;99.90;;;;;;5013242;28;20026;-79
2021/09/04 11:32:52;;;;;;;82.70;49.03;;;21.30;99.90;;;;;;5014748;28;20022;-80
2021/09/04 11:35:18;;;;;;;75.72;45.08;;;21.40;99.90;;;;;;5017174;28;20026;-80
2021/09/04 11:37:45;;;;;;;70.03;41.60;;;21.60;99.90;;;;;;5018409;28;20065;-80
2021/09/04 11:40:24;;;;;;;64.90;41.75;;;22.10;99.90;;;;;;5019756;28;20022;-80
2021/09/04 11:42:52;;;;;;;63.85;41.28;;;22.50;99.90;;;;;;5017979;28;20072;-79
2021/09/04 11:45:20;;;;;;;66.18;43.20;;;22.70;99.90;;;;;;5018007;28;20026;-79
2021/09/04 11:47:51;;;;;;;66.68;42.17;;;23.30;99.90;;;;;;5016840;28;20430;-79
2021/09/04 11:50:24;;;;;;;68.72;42.00;;;23.30;99.90;;;;;;5015536;28;20022;-80
2021/09/04 11:52:50;;;;;;;63.50;40.50;;;23.50;99.90;;;;;;5018330;28;20110;-79
2021/09/04 11:55:25;;;;;;;62.50;41.03;;;23.30;99.90;;;;;;5020200;28;20072;-79
2021/09/04 11:57:59;;;;;;;55.75;38.67;;;24.50;99.90;;;;;;5021961;28;20465;-79
2021/09/04 12:00:26;;;;;;;56.53;37.97;;;24.60;99.90;;;;;;5020560;28;20032;-80
2021/09/04 12:02:53;;;;;;;57.97;38.45;;;25.40;99.90;;;;;;5019247;28;20045;-80
2021/09/04 12:05:24;;;;;;;56.25;37.65;;;25.60;99.90;;;;;;5022586;28;20088;-79
2021/09/04 12:07:54;;;;;;;56.03;38.77;;;25.50;99.90;;;;;;5020729;28;20026;-79
2021/09/04 12:10:31;;;;;;;55.65;38.97;;;25.70;99.90;;;;;;5019631;28;20083;-79
2021/09/04 12:13:25;;;;;;;58.92;39.65;;;26.30;99.90;;;;;;5019391;28;20093;-79
2021/09/04 12:15:55;;;;;;;55.72;37.85;;;26.20;99.90;;;;;;5019686;28;20037;-78
2021/09/04 12:18:37;;;;;;;51.85;35.67;;;26.00;99.90;;;;;;5019287;28;20021;-79
2021/09/04 12:21:23;;;;;;;;;;;25.80;99.90;;;;;;5019188;28;20033;-79
2021/09/04 12:23:57;;;;;;;51.10;36.83;;;26.20;99.90;;;;;;5018208;28;19980;-78
2021/09/04 12:26:23;;;;;;;51.92;36.67;;;26.80;99.90;;;;;;5020612;28;20026;-79
2021/09/04 12:28:49;;;;;;;48.28;33.72;;;26.30;99.90;;;;;;5019206;28;20026;-79